Hauptseite
METAR-TAF:

METAR-TAF

Flughäfen :

Flughafen Pembrey

Pembrey, Wales

Breite: 51-43N, Länge: 004-22W, Höhe: 3 m

Beobachtung

Neuester Wetterbericht von vor 47 Minuten, um 19:20 UTC
Wind 18 kt aus West/Südwest
Temperatur 17°C
Luftfeuchtigkeit 88%
Luftdruck 1008 hPa
Sichtweite 10 km oder mehr

METAR: EGOP 251920Z AUTO 25018KT 9999 OVC011/// 17/15 Q1008

Zeit: 21:07 (20:07 UTC)


TAF: fehlend

Wetterbeobachtungen und Prognosen von mehr als 4000 Flughäfen (METAR und TAF Bericht).

Die verfügbaren Stationen werden durch gelbe und rote Markierungen auf der Karte dargestellt.

Führen Sie die Maus auf sie, um den Namen der Station zu sehen.

Darauf klicken, um die Beobachtung von Wetterbeobachtungen und Prognosen zu sehen.

Um die Karte zu ändern : klicken Sie auf den grünen Tasten mit einem schwarzen Kreuz Zum Vergrößern, auf den grünen Button mit einem Gedankenstrich zu verkleinern, oder auf die grünen Pfeile für benachbarte Karten.


METAR-TAF: